Weather at Edmonton International Airport

Public forecast

Using degrees Celsius for public forecast. Weather courtesy of forecast.io.

Current aviation weather report (METAR) for Edmonton International Airport

Retrieved 2020/09/24 23:00 UTC (9 minutes ago):

CYEG 242300Z 29014G21KT 20SM FEW070TCU SCT100 BKN220 20/00 A2943 RMK TCU1AC3CI1 DIST SH N-NE + S VIRGA NW SLP972 DENSITY ALT 4100FT

Aviation forecast (TAF) for Edmonton International Airport

Retrieved 2020/09/24 21:40 UTC (1 hour ago):

TAF CYEG 242038Z 2421/2518 30015G25KT P6SM FEW050 SCT220 FM250100 28015KT P6SM SKC BECMG 2507/2509 25008KT FM251500 21008KT P6SM SKC BECMG 2516/2518 17008KT RMK NXT FCST BY 250000Z